Time;durP1;ratioP1;P1;durP2;ratioP2;P2;SDS_P1;SDS_P2;PMS_P1;PMS_P2;Temp;Humidity;BMP_temperature;BMP_pressure;BME280_temperature;BME280_humidity;BME280_pressure;Samples;Min_cycle;Max_cycle;Signal;HPM_P1;HPM_P2
2022/07/04 00:01:18;;;;;;;8.70;7.95;;;;;;;22.33;72.59;99275.37;1730582;81;21336;-65
2022/07/04 00:03:44;;;;;;;8.63;7.92;;;;;;;22.38;72.49;99278.14;1741935;80;21428;-66
2022/07/04 00:06:11;;;;;;;8.58;7.85;;;;;;;22.41;72.28;99280.35;1758437;80;20942;-65
2022/07/04 00:08:38;;;;;;;8.08;7.47;;;;;;;22.42;72.06;99280.09;1727643;81;20981;-66
2022/07/04 00:11:05;;;;;;;8.60;7.90;;;;;;;22.40;71.78;99281.41;1730538;81;20918;-65
2022/07/04 00:13:32;;;;;;;9.10;8.20;;;;;;;22.32;71.73;99279.95;1751756;80;21248;-67
2022/07/04 00:16:00;;;;;;;9.13;8.33;;;;;;;22.25;71.77;99278.50;1734251;81;21423;-65
2022/07/04 00:18:26;;;;;;;8.73;8.03;;;;;;;22.18;72.01;99283.30;1737990;80;20894;-67
2022/07/04 00:20:54;;;;;;;8.88;8.00;;;;;;;22.14;72.40;99281.08;1760681;80;20900;-65
2022/07/04 00:23:22;;;;;;;8.10;7.50;;;;;;;22.16;72.74;99280.02;1739342;80;20950;-66
2022/07/04 00:25:48;;;;;;;8.20;7.28;;;;;;;22.22;72.82;99275.77;1739707;80;21067;-66
2022/07/04 00:28:15;;;;;;;8.08;7.37;;;;;;;22.30;72.73;99278.05;1743308;81;20891;-66
2022/07/04 00:30:41;;;;;;;6.90;6.30;;;;;;;22.37;72.58;99269.19;1712668;82;20955;-65
2022/07/04 00:33:13;;;;;;;6.65;6.15;;;;;;;22.47;72.33;99263.92;1716304;82;20955;-67
2022/07/04 00:35:40;;;;;;;6.47;5.97;;;;;;;22.50;72.21;99262.03;1724135;82;20896;-66
2022/07/04 00:38:06;;;;;;;6.90;6.33;;;;;;;22.50;72.21;99262.03;1725020;82;21229;-65
2022/07/04 00:40:34;;;;;;;7.75;7.25;;;;;;;22.51;72.13;99255.55;1712549;82;20986;-65
2022/07/04 00:43:03;;;;;;;6.95;6.28;;;;;;;22.45;71.94;99259.27;1712684;82;21053;-67
2022/07/04 00:45:30;;;;;;;7.00;6.40;;;;;;;22.35;72.11;99261.02;1714870;82;21054;-67
2022/07/04 00:47:57;;;;;;;7.78;7.08;;;;;;;22.26;72.37;99257.13;1733166;82;20903;-65
2022/07/04 00:50:25;;;;;;;7.58;7.05;;;;;;;22.22;72.68;99262.22;1718184;81;21291;-65
2022/07/04 00:52:52;;;;;;;7.20;6.60;;;;;;;22.21;72.90;99257.06;1730240;81;20981;-65
2022/07/04 00:55:21;;;;;;;6.87;6.28;;;;;;;22.26;72.97;99261.19;1735291;82;21512;-65
2022/07/04 00:57:47;;;;;;;7.40;6.80;;;;;;;22.30;72.91;99260.43;1744602;82;21461;-64
2022/07/04 01:00:15;;;;;;;7.17;6.58;;;;;;;22.31;72.90;99258.55;1727905;82;21469;-64
2022/07/04 01:02:42;;;;;;;7.53;6.87;;;;;;;22.27;72.96;99264.16;1728147;82;21472;-66
2022/07/04 01:05:09;;;;;;;7.45;6.90;;;;;;;22.24;73.06;99259.27;1717750;82;21539;-65
2022/07/04 01:07:36;;;;;;;10.15;7.22;;;;;;;22.22;73.18;99258.68;1743954;82;20942;-64
2022/07/04 01:10:05;;;;;;;7.62;6.80;;;;;;;22.19;73.36;99259.20;1721591;82;21002;-64
2022/07/04 01:12:31;;;;;;;7.30;6.70;;;;;;;22.21;73.40;99261.95;1718424;82;21571;-66
2022/07/04 01:14:58;;;;;;;7.28;6.70;;;;;;;22.26;73.47;99253.89;1718379;82;21251;-65
2022/07/04 01:17:24;;;;;;;8.45;7.12;;;;;;;22.32;73.39;99253.39;1730214;82;20995;-66
2022/07/04 01:19:50;;;;;;;7.12;6.42;;;;;;;22.37;73.22;99251.56;1718545;82;21003;-66
2022/07/04 01:22:19;;;;;;;7.67;6.90;;;;;;;22.40;73.07;99247.53;1738840;82;21010;-64
2022/07/04 01:24:45;;;;;;;6.72;6.22;;;;;;;22.37;73.00;99248.86;1718397;82;21468;-64
2022/07/04 01:27:12;;;;;;;7.40;6.90;;;;;;;22.34;73.05;99256.16;1737676;82;22121;-67
2022/07/04 01:29:39;;;;;;;7.45;6.87;;;;;;;22.30;73.14;99259.60;1718481;82;20982;-65
2022/07/04 01:32:06;;;;;;;6.83;6.33;;;;;;;22.19;73.31;99254.58;1718473;82;21013;-64
2022/07/04 01:34:35;;;;;;;7.72;7.00;;;;;;;22.08;73.60;99260.39;1696705;84;20943;-65
2022/07/04 01:37:01;;;;;;;8.53;7.67;;;;;;;21.99;73.99;99248.89;1742148;81;20953;-65
2022/07/04 01:39:28;;;;;;;8.70;7.00;;;;;;;21.93;74.29;99253.41;1707229;81;21090;-64
2022/07/04 01:41:55;;;;;;;7.28;6.67;;;;;;;21.93;74.74;99254.77;1700478;81;20829;-67
2022/07/04 01:44:21;;;;;;;7.60;6.83;;;;;;;21.94;74.65;99251.00;1721159;81;21030;-67
2022/07/04 01:46:48;;;;;;;7.35;6.85;;;;;;;21.97;74.66;99255.10;1723888;81;20990;-65
2022/07/04 01:49:14;;;;;;;7.62;6.45;;;;;;;21.96;74.58;99253.45;1756511;81;20926;-65
2022/07/04 01:51:47;;;;;;;8.08;7.37;;;;;;;21.89;74.73;99251.46;1706847;81;21180;-67
2022/07/04 01:54:14;;;;;;;7.05;6.45;;;;;;;21.84;74.84;99254.06;1686316;84;20854;-65
2022/07/04 01:56:40;;;;;;;7.03;6.53;;;;;;;21.80;74.94;99249.67;1724206;82;20950;-65
2022/07/04 01:59:08;;;;;;;7.53;6.80;;;;;;;21.68;75.19;99255.72;1717976;82;20959;-65
2022/07/04 02:01:34;;;;;;;7.40;6.70;;;;;;;21.64;75.19;99258.62;1744324;82;20954;-65
2022/07/04 02:04:02;;;;;;;7.70;7.08;;;;;;;21.64;75.19;99258.62;1732887;82;21131;-65
2022/07/04 02:06:29;;;;;;;7.60;6.87;;;;;;;21.44;75.84;99260.48;1724578;82;21530;-65
2022/07/04 02:14:27;;;;;;;12.25;6.95;;;;;;;21.37;76.47;99261.18;1730314;82;20899;-65
2022/07/04 02:16:54;;;;;;;9.03;7.33;;;;;;;21.39;76.67;99260.39;1735008;82;21126;-65
2022/07/04 02:19:20;;;;;;;14.10;7.33;;;;;;;21.42;76.67;99259.08;1714866;83;20979;-65
2022/07/04 02:21:47;;;;;;;12.58;7.33;;;;;;;21.45;76.63;99262.13;1724196;82;20839;-66
2022/07/04 02:24:13;;;;;;;7.50;6.80;;;;;;;21.50;76.46;99262.21;1717744;83;21005;-65
2022/07/04 02:26:40;;;;;;;7.35;6.70;;;;;;;21.50;76.46;99262.21;1716786;82;20902;-65
2022/07/04 02:29:06;;;;;;;7.25;6.65;;;;;;;21.51;76.35;99258.95;1726408;82;21120;-64
2022/07/04 02:31:33;;;;;;;7.08;6.37;;;;;;;21.51;76.24;99258.95;1705401;82;20924;-67
2022/07/04 02:34:00;;;;;;;7.67;6.85;;;;;;;21.51;76.17;99261.66;1700615;83;21034;-64
2022/07/04 02:36:27;;;;;;;7.87;7.20;;;;;;;21.50;76.18;99265.45;1712125;82;20965;-65
2022/07/04 02:38:54;;;;;;;6.87;6.15;;;;;;;21.48;76.17;99272.44;1710493;83;20912;-65
2022/07/04 02:41:20;;;;;;;7.70;7.10;;;;;;;21.48;75.96;99274.35;1705876;83;21727;-65
2022/07/04 02:43:47;;;;;;;7.58;6.92;;;;;;;21.44;75.90;99274.01;1729539;82;21381;-65
2022/07/04 02:46:13;;;;;;;8.38;7.00;;;;;;;21.43;75.94;99271.56;1713710;82;21540;-65
2022/07/04 02:48:40;;;;;;;7.40;6.58;;;;;;;21.43;76.20;99270.20;1715967;83;21552;-65
2022/07/04 02:51:06;;;;;;;8.38;7.25;;;;;;;21.45;75.83;99268.07;1700567;83;21418;-64
2022/07/04 02:53:33;;;;;;;8.15;7.55;;;;;;;21.44;75.78;99272.66;1711835;82;22177;-66
2022/07/04 02:56:03;;;;;;;7.33;6.62;;;;;;;21.50;75.66;99274.92;1715789;83;20969;-65
2022/07/04 02:58:28;;;;;;;6.92;6.30;;;;;;;21.48;75.63;99275.70;1727651;82;21448;-65
2022/07/04 03:00:54;;;;;;;7.40;6.65;;;;;;;21.52;75.68;99278.19;1729911;81;21421;-65
2022/07/04 03:03:21;;;;;;;8.15;7.35;;;;;;;21.48;75.38;99268.94;1720624;82;21496;-65
2022/07/04 03:05:48;;;;;;;8.18;6.87;;;;;;;21.41;75.21;99266.91;1683982;84;21265;-66
2022/07/04 03:08:15;;;;;;;9.30;7.78;;;;;;;21.35;75.41;99265.20;1743942;82;20922;-65
2022/07/04 03:10:41;;;;;;;7.72;7.03;;;;;;;21.33;75.69;99268.66;1682137;84;20895;-64
2022/07/04 03:13:08;;;;;;;7.30;6.70;;;;;;;21.37;75.92;99269.83;1725371;82;20982;-65
2022/07/04 03:15:35;;;;;;;7.78;7.10;;;;;;;21.43;75.91;99271.00;1719064;82;20998;-65
2022/07/04 03:18:01;;;;;;;8.00;7.37;;;;;;;21.48;75.76;99271.09;1727066;82;21505;-65
2022/07/04 03:20:29;;;;;;;10.15;6.90;;;;;;;21.52;75.68;99268.72;1738760;82;20986;-66
2022/07/04 03:22:58;;;;;;;8.20;6.55;;;;;;;21.57;75.61;99270.68;1674971;84;21008;-66
2022/07/04 03:25:24;;;;;;;8.03;7.33;;;;;;;21.63;75.48;99274.59;1712641;82;21015;-65
2022/07/04 03:27:52;;;;;;;7.47;6.70;;;;;;;21.71;75.37;99274.18;1725374;82;21494;-65
2022/07/04 03:30:19;;;;;;;8.55;7.60;;;;;;;21.82;75.12;99273.25;1712745;82;21249;-67
2022/07/04 03:32:47;;;;;;;8.25;7.50;;;;;;;21.95;74.76;99271.58;1733350;82;20927;-65
2022/07/04 03:35:13;;;;;;;8.88;7.53;;;;;;;22.11;74.30;99273.45;1712930;82;20939;-66
2022/07/04 03:37:40;;;;;;;6.72;6.17;;;;;;;22.33;73.83;99272.66;1730115;82;21042;-65
2022/07/04 03:40:08;;;;;;;7.53;6.85;;;;;;;22.69;73.01;99269.34;1743392;81;20898;-66
2022/07/04 03:42:35;;;;;;;8.80;6.92;;;;;;;23.20;71.84;99265.29;1732720;80;21134;-65
2022/07/04 03:45:03;;;;;;;7.20;6.65;;;;;;;23.75;69.99;99260.91;1749252;81;21009;-65
2022/07/04 03:47:30;;;;;;;8.43;7.53;;;;;;;24.33;68.44;99260.73;1736696;81;20981;-65
2022/07/04 03:49:56;;;;;;;10.55;7.10;;;;;;;24.90;66.53;99260.70;1739450;80;20902;-65
2022/07/04 03:52:23;;;;;;;8.10;7.33;;;;;;;25.44;64.55;99256.98;1742373;81;20993;-66
2022/07/04 03:54:49;;;;;;;7.12;6.53;;;;;;;25.94;62.29;99258.06;1751840;80;21553;-65
2022/07/04 03:57:16;;;;;;;7.65;7.03;;;;;;;26.35;60.68;99261.81;1739300;81;20919;-64
2022/07/04 03:59:43;;;;;;;9.43;8.55;;;;;;;26.81;59.21;99265.72;1751726;80;21519;-65
2022/07/04 04:02:09;;;;;;;8.50;7.70;;;;;;;27.26;57.93;99259.98;1740989;81;21496;-65
2022/07/04 04:07:20;;;;;;;7.72;6.15;;;;;;;28.25;55.01;99260.50;1722624;82;21865;-64
2022/07/04 04:09:47;;;;;;;7.30;6.45;;;;;;;28.82;53.29;99262.29;1712869;82;20860;-64
2022/07/04 04:12:14;;;;;;;6.35;5.85;;;;;;;29.31;51.91;99259.41;1681411;84;20946;-64
2022/07/04 04:14:41;;;;;;;6.58;5.87;;;;;;;29.80;50.61;99256.14;1748158;82;20954;-66
2022/07/04 04:17:07;;;;;;;6.30;5.80;;;;;;;30.31;49.08;99257.39;1731245;81;20931;-66
2022/07/04 04:19:34;;;;;;;7.35;5.47;;;;;;;30.79;47.52;99259.73;1730324;82;21120;-65
2022/07/04 04:22:00;;;;;;;7.87;5.47;;;;;;;31.22;45.84;99251.91;1696131;84;20914;-65
2022/07/04 04:24:27;;;;;;;5.55;5.15;;;;;;;31.55;44.55;99254.70;1718550;81;20951;-65
2022/07/04 04:26:55;;;;;;;5.90;5.40;;;;;;;31.81;44.00;99242.52;1747192;82;20918;-66
2022/07/04 04:29:22;;;;;;;5.30;4.90;;;;;;;32.19;43.21;99247.83;1723067;81;20976;-65
2022/07/04 04:31:48;;;;;;;6.47;5.28;;;;;;;32.58;41.90;99242.88;1709046;81;21151;-66
2022/07/04 04:34:15;;;;;;;6.72;5.50;;;;;;;32.88;40.93;99248.28;1702817;81;21583;-66
2022/07/04 04:36:41;;;;;;;6.03;4.97;;;;;;;33.15;40.23;99245.02;1745707;82;21479;-66
2022/07/04 04:39:08;;;;;;;5.33;4.92;;;;;;;33.45;39.68;99248.97;1707765;81;20948;-66
2022/07/04 04:41:34;;;;;;;5.58;5.08;;;;;;;33.87;38.97;99250.66;1700689;81;21036;-65
2022/07/04 04:44:05;;;;;;;7.05;4.70;;;;;;;34.36;38.09;99247.82;1730246;81;21251;-66
2022/07/04 04:46:31;;;;;;;5.47;4.00;;;;;;;34.85;37.12;99247.64;1742214;81;21002;-67
2022/07/04 04:48:58;;;;;;;4.60;4.20;;;;;;;35.35;36.29;99246.44;1714814;83;20876;-66
2022/07/04 04:51:24;;;;;;;5.92;4.75;;;;;;;35.83;35.38;99247.80;1719093;82;20867;-66
2022/07/04 04:53:51;;;;;;;5.22;4.72;;;;;;;36.20;34.27;99239.02;1707630;83;20888;-66
2022/07/04 04:56:17;;;;;;;5.30;4.53;;;;;;;36.45;33.94;99237.89;1700684;83;21270;-67
2022/07/04 04:58:44;;;;;;;4.85;4.33;;;;;;;36.84;33.15;99234.99;1725748;82;20941;-66
2022/07/04 05:01:10;;;;;;;4.30;4.00;;;;;;;37.05;32.57;99235.07;1725571;83;20930;-66
2022/07/04 05:03:37;;;;;;;5.30;4.87;;;;;;;37.31;32.31;99236.02;1733045;82;20951;-65
2022/07/04 05:06:04;;;;;;;7.75;7.15;;;;;;;37.75;31.88;99231.36;1688820;83;21002;-68
2022/07/04 05:08:31;;;;;;;5.90;5.30;;;;;;;38.25;30.85;99229.29;1726849;81;21245;-67
2022/07/04 05:10:57;;;;;;;7.58;4.95;;;;;;;38.60;30.29;99236.33;1716911;81;20965;-66
2022/07/04 05:13:24;;;;;;;4.83;4.42;;;;;;;38.99;29.49;99237.23;1727303;81;20981;-67
2022/07/04 05:15:51;;;;;;;5.30;4.90;;;;;;;39.41;29.08;99230.64;1734844;82;21005;-67
2022/07/04 05:18:17;;;;;;;4.50;4.10;;;;;;;39.91;28.53;99222.67;1732953;82;21049;-67
2022/07/04 05:20:44;;;;;;;6.72;4.40;;;;;;;40.33;27.53;99229.59;1739627;81;21239;-66
2022/07/04 05:23:11;;;;;;;5.72;4.35;;;;;;;40.60;27.12;99227.04;1749090;81;21017;-67
2022/07/04 05:25:37;;;;;;;6.90;6.20;;;;;;;41.04;26.63;99233.48;1707230;81;20998;-65
2022/07/04 05:28:04;;;;;;;7.85;6.58;;;;;;;41.42;26.04;99229.00;1733943;81;21017;-66
2022/07/04 05:30:30;;;;;;;5.85;5.45;;;;;;;41.62;25.84;99222.63;1738385;82;21113;-66
2022/07/04 05:32:58;;;;;;;5.10;4.70;;;;;;;41.91;25.24;99222.36;1735166;82;21440;-67
2022/07/04 05:35:27;;;;;;;5.53;5.03;;;;;;;42.08;24.80;99218.94;1741451;82;21064;-65
2022/07/04 05:37:54;;;;;;;5.05;4.58;;;;;;;42.19;24.61;99219.25;1731830;81;20944;-65
2022/07/04 05:40:21;;;;;;;4.65;4.22;;;;;;;42.20;24.70;99215.87;1722681;83;21053;-67
2022/07/04 05:42:48;;;;;;;4.17;3.77;;;;;;;42.36;24.63;99214.42;1721908;82;21043;-67
2022/07/04 05:45:15;;;;;;;5.55;4.03;;;;;;;42.51;24.23;99211.70;1722999;83;21264;-64
2022/07/04 05:47:42;;;;;;;4.75;4.03;;;;;;;42.60;23.95;99211.62;1725601;82;20984;-66
2022/07/04 05:50:09;;;;;;;5.00;3.80;;;;;;;42.64;23.85;99219.42;1721801;83;20977;-66
2022/07/04 05:52:36;;;;;;;4.05;3.65;;;;;;;42.75;23.82;99216.10;1723691;83;21049;-65
2022/07/04 05:55:06;;;;;;;4.58;3.92;;;;;;;43.04;23.47;99218.48;1725601;81;20985;-66
2022/07/04 05:57:34;;;;;;;4.12;3.83;;;;;;;43.23;23.09;99220.17;1734366;81;21222;-66
2022/07/04 06:00:02;;;;;;;6.03;3.60;;;;;;;43.19;23.12;99220.14;1716608;81;20926;-67
2022/07/04 06:02:30;;;;;;;3.85;3.55;;;;;;;43.23;23.08;99218.77;1720389;81;21633;-66
2022/07/04 06:04:57;;;;;;;4.08;3.62;;;;;;;43.07;22.97;99213.50;1748776;81;21404;-66
2022/07/04 06:07:25;;;;;;;4.78;4.20;;;;;;;42.82;23.08;99216.13;1725283;81;20981;-71
2022/07/04 06:09:51;;;;;;;4.25;3.83;;;;;;;42.34;23.54;99218.17;1735980;81;21256;-67
2022/07/04 06:12:18;;;;;;;5.22;3.77;;;;;;;42.06;23.76;99214.31;1743654;82;20935;-68
2022/07/04 06:14:46;;;;;;;4.42;3.92;;;;;;;41.67;24.21;99216.70;1719413;82;21438;-66
2022/07/04 06:17:12;;;;;;;4.50;3.50;;;;;;;41.42;24.46;99216.45;1739425;82;21484;-67
2022/07/04 06:19:39;;;;;;;3.85;3.55;;;;;;;41.33;24.56;99211.73;1722805;82;20939;-65
2022/07/04 06:22:06;;;;;;;4.08;3.67;;;;;;;41.30;24.66;99210.29;1726834;82;21276;-65
2022/07/04 06:24:33;;;;;;;4.60;3.50;;;;;;;41.55;24.57;99209.41;1737636;82;20934;-65
2022/07/04 06:27:00;;;;;;;4.30;3.90;;;;;;;42.01;24.24;99210.47;1718330;82;20986;-66
2022/07/04 06:29:27;;;;;;;3.72;3.35;;;;;;;42.44;23.72;99216.08;1718352;82;20899;-65
2022/07/04 06:31:54;;;;;;;4.08;3.77;;;;;;;43.33;23.09;99217.44;1733255;82;21031;-64
2022/07/04 06:37:05;;;;;;;6.30;3.87;;;;;;;44.52;21.37;99212.42;1712195;81;20955;-63
2022/07/04 06:39:32;;;;;;;3.30;3.10;;;;;;;44.49;21.77;99214.63;1727370;81;20989;-63
2022/07/04 06:41:59;;;;;;;4.00;3.60;;;;;;;45.22;21.24;99203.02;1746236;82;20897;-62
2022/07/04 06:44:26;;;;;;;3.50;3.30;;;;;;;46.18;20.17;99203.29;1709016;82;21045;-64
2022/07/04 06:46:53;;;;;;;3.95;3.60;;;;;;;46.68;19.09;99199.39;1727502;81;21154;-63
2022/07/04 06:49:20;;;;;;;3.50;3.20;;;;;;;47.07;18.39;99199.16;1700508;81;21017;-63
2022/07/04 06:51:46;;;;;;;3.60;3.40;;;;;;;47.43;17.83;99205.77;1700527;81;21465;-63
2022/07/04 06:54:13;;;;;;;3.42;3.22;;;;;;;46.62;17.94;99201.88;1700648;81;21430;-63
2022/07/04 06:56:39;;;;;;;3.58;3.00;;;;;;;44.93;19.47;99204.33;1708276;81;21515;-62
2022/07/04 06:59:06;;;;;;;3.45;3.25;;;;;;;43.82;20.81;99202.78;1748055;82;21116;-63
2022/07/04 07:01:33;;;;;;;3.47;3.27;;;;;;;43.07;21.49;99201.51;1729632;81;20919;-63
2022/07/04 07:03:59;;;;;;;3.90;3.30;;;;;;;42.23;22.32;99190.76;1733640;82;20934;-63
2022/07/04 07:06:25;;;;;;;4.20;3.92;;;;;;;41.24;23.29;99198.08;1693061;84;20895;-63
2022/07/04 07:08:53;;;;;;;4.97;4.45;;;;;;;40.17;24.63;99205.23;1729704;83;21499;-63
2022/07/04 07:11:20;;;;;;;4.90;4.22;;;;;;;38.89;26.40;99211.63;1721503;82;22130;-64
2022/07/04 07:13:50;;;;;;;5.22;4.12;;;;;;;37.82;28.08;99200.19;1727746;81;20923;-63
2022/07/04 07:16:19;;;;;;;3.83;3.52;;;;;;;37.08;29.47;99208.61;1727863;81;20988;-63
2022/07/04 07:18:46;;;;;;;3.83;3.52;;;;;;;36.69;30.27;99216.29;1728272;81;20928;-62
2022/07/04 07:21:12;;;;;;;3.50;3.30;;;;;;;37.25;29.52;99211.11;1727994;81;21505;-63
2022/07/04 07:23:40;;;;;;;3.52;3.20;;;;;;;37.30;28.93;99209.47;1728071;81;21521;-62
2022/07/04 07:26:07;;;;;;;3.95;3.12;;;;;;;37.24;29.01;99202.55;1707349;81;21019;-63
2022/07/04 07:28:34;;;;;;;3.72;3.40;;;;;;;37.00;28.96;99205.39;1728076;81;20984;-62
2022/07/04 07:31:01;;;;;;;3.45;3.15;;;;;;;36.53;29.64;99204.33;1727692;81;20988;-63
2022/07/04 07:33:29;;;;;;;;;;;;;;;36.23;30.10;99205.92;1730573;81;35819;-63
2022/07/04 07:35:56;;;;;;;3.35;3.05;;;;;;;36.56;29.96;99200.27;1740395;82;21136;-62
2022/07/04 07:38:22;;;;;;;3.30;3.10;;;;;;;37.73;28.62;99192.84;1740359;82;20981;-63
2022/07/04 07:40:48;;;;;;;3.40;3.10;;;;;;;38.50;27.61;99191.04;1740347;82;20938;-63
2022/07/04 07:43:15;;;;;;;3.08;2.85;;;;;;;39.46;26.27;99194.74;1740552;82;21001;-63
2022/07/04 07:45:42;;;;;;;3.37;3.17;;;;;;;39.75;25.29;99184.39;1740758;82;20946;-62
2022/07/04 07:48:08;;;;;;;2.87;2.58;;;;;;;38.89;25.97;99185.22;1740447;82;21135;-63
2022/07/04 07:50:36;;;;;;;3.40;3.17;;;;;;;37.98;27.30;99185.78;1740520;82;21413;-63
2022/07/04 07:53:03;;;;;;;5.12;2.80;;;;;;;37.18;28.33;99190.08;1740624;82;20938;-63
2022/07/04 07:55:29;;;;;;;4.80;3.37;;;;;;;36.55;29.17;99194.52;1740518;82;20930;-63
2022/07/04 07:57:58;;;;;;;3.00;2.75;;;;;;;36.98;28.81;99179.42;1740479;82;20854;-62
2022/07/04 08:00:25;;;;;;;3.90;3.17;;;;;;;37.43;27.91;99175.56;1740519;82;21210;-63
2022/07/04 08:05:22;;;;;;;3.62;3.25;;;;;;;36.36;28.54;99181.22;1690768;82;20986;-61
2022/07/04 08:07:49;;;;;;;3.35;3.02;;;;;;;35.52;29.59;99177.73;1740688;82;20951;-63
2022/07/04 08:10:15;;;;;;;3.50;3.25;;;;;;;35.01;30.28;99185.11;1740428;82;21554;-64
2022/07/04 08:12:42;;;;;;;4.80;3.05;;;;;;;36.05;29.55;99177.41;1722908;82;21848;-64
2022/07/04 08:15:10;;;;;;;4.62;2.77;;;;;;;38.05;27.83;99167.89;1733263;82;21089;-62
2022/07/04 08:17:36;;;;;;;4.42;3.30;;;;;;;38.37;26.31;99167.31;1727248;82;21349;-64
2022/07/04 08:20:04;;;;;;;3.37;2.85;;;;;;;37.52;26.96;99168.69;1721433;82;20950;-63
2022/07/04 08:22:31;;;;;;;3.40;3.10;;;;;;;36.84;27.83;99175.41;1730289;82;20931;-63
2022/07/04 08:24:57;;;;;;;3.58;2.77;;;;;;;36.52;27.82;99168.89;1718698;82;21147;-63
2022/07/04 08:27:25;;;;;;;4.35;2.90;;;;;;;36.80;27.67;99168.94;1733767;82;20938;-63
2022/07/04 08:29:51;;;;;;;3.10;2.70;;;;;;;37.82;26.61;99169.66;1712919;82;20999;-63
2022/07/04 08:32:18;;;;;;;2.98;2.77;;;;;;;37.70;26.78;99168.58;1686878;84;21520;-62
2022/07/04 08:34:45;;;;;;;2.70;2.30;;;;;;;37.31;26.92;99170.06;1724738;81;20990;-62
2022/07/04 08:37:12;;;;;;;7.40;3.08;;;;;;;38.41;26.50;99174.55;1728194;82;21225;-62
2022/07/04 08:39:38;;;;;;;3.30;2.98;;;;;;;40.04;25.11;99168.98;1737469;82;20958;-62
2022/07/04 08:42:09;;;;;;;6.83;3.30;;;;;;;40.44;24.30;99164.27;1744426;81;20993;-63
2022/07/04 08:44:39;;;;;;;3.65;3.20;;;;;;;39.64;25.19;99172.25;1719363;82;21468;-63
2022/07/04 08:47:09;;;;;;;7.35;3.42;;;;;;;38.70;26.23;99169.87;1717918;82;20943;-63
2022/07/04 08:49:35;;;;;;;5.83;3.17;;;;;;;37.79;27.15;99170.37;1717879;82;21141;-63
2022/07/04 08:52:06;;;;;;;5.28;2.95;;;;;;;36.96;28.56;99174.00;1717809;82;20934;-63
2022/07/04 09:00:06;;;;;;;3.15;2.95;;;;;;;40.90;24.32;99173.32;1718529;82;21062;-64
2022/07/04 09:02:33;;;;;;;3.45;3.12;;;;;;;42.41;22.04;99176.31;1717994;82;21734;-64
2022/07/04 09:05:00;;;;;;;5.28;2.95;;;;;;;41.65;21.97;99174.41;1738816;82;21599;-64
2022/07/04 09:07:28;;;;;;;5.95;3.00;;;;;;;39.97;23.31;99181.40;1717952;82;21445;-64
2022/07/04 09:09:56;;;;;;;3.30;3.02;;;;;;;38.51;24.91;99185.72;1717929;82;20954;-63
2022/07/04 09:12:22;;;;;;;3.40;2.87;;;;;;;37.49;26.07;99176.94;1717919;82;20994;-63
2022/07/04 09:14:49;;;;;;;3.15;2.85;;;;;;;36.86;26.73;99177.24;1718070;82;21132;-63
2022/07/04 09:17:17;;;;;;;3.45;2.70;;;;;;;36.30;27.61;99176.25;1728418;82;20950;-63
2022/07/04 09:19:43;;;;;;;4.28;2.87;;;;;;;35.72;28.39;99178.86;1727961;82;20954;-63
2022/07/04 09:22:14;;;;;;;3.42;2.87;;;;;;;35.22;28.80;99174.88;1717828;82;21618;-63
2022/07/04 09:24:48;;;;;;;3.27;2.98;;;;;;;34.76;29.68;99175.86;1717899;82;21057;-64
2022/07/04 09:27:34;;;;;;;4.45;2.50;;;;;;;34.30;30.43;99184.27;1717851;82;21194;-62
2022/07/04 09:30:00;;;;;;;3.10;2.80;;;;;;;33.95;30.90;99177.49;1717259;82;20970;-63
2022/07/04 09:32:42;;;;;;;4.05;2.65;;;;;;;33.67;31.03;99179.06;1717799;82;20946;-67
2022/07/04 09:35:14;;;;;;;4.90;2.77;;;;;;;33.47;31.42;99182.49;1717966;82;20919;-64
2022/07/04 09:37:47;;;;;;;3.85;2.90;;;;;;;33.20;32.10;99180.09;1722467;82;21044;-63
2022/07/04 09:41:24;;;;;;;4.08;3.02;;;;;;;33.04;32.00;99180.30;1732807;82;22463;-63
2022/07/04 09:43:10;;;;;;;3.65;2.52;;;;;;;33.38;32.33;99183.88;1735443;82;21509;-63
2022/07/04 09:45:40;;;;;;;2.70;2.50;;;;;;;33.76;31.33;99183.99;1717870;82;20995;-63
2022/07/04 09:48:07;;;;;;;3.70;2.62;;;;;;;33.67;31.21;99179.06;1717479;82;21413;-64
2022/07/04 09:50:33;;;;;;;2.62;2.42;;;;;;;33.53;31.78;99181.97;1717986;82;21575;-63
2022/07/04 09:53:01;;;;;;;2.92;2.65;;;;;;;33.49;31.96;99179.65;1677701;84;21280;-64
2022/07/04 09:55:37;;;;;;;4.65;2.60;;;;;;;33.44;31.26;99172.11;1718050;82;21437;-62
2022/07/04 09:58:12;;;;;;;3.42;2.60;;;;;;;33.42;31.50;99180.72;1718274;82;21583;-63
2022/07/04 10:00:45;;;;;;;5.75;2.77;;;;;;;33.47;30.93;99181.11;1717948;82;20915;-63
2022/07/04 10:03:29;;;;;;;2.25;2.15;;;;;;;33.60;31.25;99176.00;1717606;82;21057;-63
2022/07/04 10:06:11;;;;;;;2.52;2.33;;;;;;;33.72;30.10;99173.36;1718010;82;21153;-63
2022/07/04 10:08:39;;;;;;;2.67;2.45;;;;;;;33.89;30.61;99170.56;1726511;82;20899;-63
2022/07/04 10:11:07;;;;;;;2.37;2.27;;;;;;;34.12;30.97;99170.56;1729856;82;20895;-63
2022/07/04 10:13:35;;;;;;;2.83;2.45;;;;;;;34.41;30.04;99162.03;1713663;82;20903;-63
2022/07/04 10:16:03;;;;;;;2.75;2.47;;;;;;;34.50;29.54;99166.34;1712695;82;20903;-63
2022/07/04 10:18:29;;;;;;;2.70;2.10;;;;;;;34.57;29.23;99156.98;1717040;82;21148;-63
2022/07/04 10:20:56;;;;;;;3.35;2.30;;;;;;;34.68;28.47;99157.39;1728794;82;20893;-63
2022/07/04 10:23:23;;;;;;;2.95;2.65;;;;;;;34.77;28.86;99154.58;1712787;82;21143;-63
2022/07/04 10:25:53;;;;;;;2.33;2.12;;;;;;;34.78;27.40;99152.88;1671257;84;20959;-63
2022/07/04 10:28:20;;;;;;;2.62;2.20;;;;;;;34.79;27.65;99156.42;1747552;82;21621;-63
2022/07/04 10:30:53;;;;;;;5.45;2.10;;;;;;;34.80;27.94;99155.28;1723476;82;21398;-63
2022/07/04 10:33:27;;;;;;;2.00;1.77;;;;;;;34.73;27.69;99154.43;1720180;82;21001;-63
2022/07/04 10:36:01;;;;;;;2.65;2.45;;;;;;;34.64;28.10;99150.94;1747552;82;21519;-63
2022/07/04 10:38:34;;;;;;;2.47;2.27;;;;;;;34.55;28.40;99148.77;1747761;82;20879;-63
2022/07/04 10:41:07;;;;;;;2.72;2.50;;;;;;;34.40;27.68;99147.98;1725973;82;21599;-62
2022/07/04 10:43:43;;;;;;;4.03;2.25;;;;;;;34.12;27.55;99144.34;1717866;82;21251;-62
2022/07/04 10:46:26;;;;;;;3.37;2.40;;;;;;;33.94;28.04;99142.78;1717813;82;20863;-63
2022/07/04 10:49:05;;;;;;;2.62;2.40;;;;;;;33.89;28.22;99138.02;1717818;82;21022;-63
2022/07/04 10:51:38;;;;;;;2.22;2.10;;;;;;;33.84;28.20;99130.70;1717775;82;20986;-63
2022/07/04 10:54:20;;;;;;;3.12;2.17;;;;;;;33.82;28.59;99128.86;1717803;82;20895;-64
2022/07/04 10:56:51;;;;;;;2.20;2.10;;;;;;;33.76;28.73;99126.06;1738745;82;21168;-64
2022/07/04 10:59:27;;;;;;;3.33;2.37;;;;;;;33.72;28.69;99125.09;1737484;81;21561;-62
2022/07/04 11:02:11;;;;;;;2.40;2.20;;;;;;;33.68;28.96;99121.95;1705511;81;20983;-63
2022/07/04 11:04:52;;;;;;;2.17;2.05;;;;;;;33.64;28.76;99123.17;1695634;83;20920;-62
2022/07/04 11:07:23;;;;;;;3.85;2.35;;;;;;;33.58;29.26;99123.14;1716009;82;20928;-63
2022/07/04 11:10:21;;;;;;;3.50;2.45;;;;;;;33.55;28.86;99111.35;1691752;83;21178;-63
2022/07/04 11:13:00;;;;;;;2.60;2.10;;;;;;;33.54;28.74;99114.67;1708669;82;20945;-63
2022/07/04 11:15:35;;;;;;;2.27;2.10;;;;;;;33.57;28.34;99119.31;1709972;83;20930;-62
2022/07/04 11:18:13;;;;;;;2.92;2.10;;;;;;;33.45;27.64;99113.09;1717806;83;20943;-62
2022/07/04 11:20:43;;;;;;;;;;;;;;;33.31;27.88;99114.66;1720350;83;20981;-63
2022/07/04 11:23:12;;;;;;;3.85;2.00;;;;;;;33.24;28.16;99110.20;1717901;83;21975;-63
2022/07/04 11:25:41;;;;;;;2.55;2.12;;;;;;;33.19;28.00;99115.88;1697399;83;20863;-62
2022/07/04 11:28:35;;;;;;;2.22;2.02;;;;;;;33.11;28.18;99107.66;1717845;83;20943;-63
2022/07/04 11:31:01;;;;;;;2.52;1.98;;;;;;;33.08;28.75;99097.28;1717538;83;20907;-64
2022/07/04 11:33:33;;;;;;;2.33;2.12;;;;;;;33.06;28.83;99095.43;1717837;83;20867;-63
2022/07/04 11:36:07;;;;;;;2.62;2.17;;;;;;;33.00;28.65;99092.56;1718000;83;21143;-63
2022/07/04 11:38:53;;;;;;;2.45;2.25;;;;;;;32.88;28.45;99083.56;1717723;83;20943;-64
2022/07/04 11:47:19;;;;;;;2.20;2.05;;;;;;;32.48;29.38;99088.99;1717749;83;20919;-62
2022/07/04 11:49:51;;;;;;;3.05;2.25;;;;;;;32.46;29.83;99085.17;1717854;83;21809;-62
2022/07/04 11:52:21;;;;;;;3.33;3.02;;;;;;;32.51;29.07;99080.09;1717780;83;20966;-62
2022/07/04 11:54:49;;;;;;;3.05;2.65;;;;;;;32.51;28.85;99082.84;1717891;83;20954;-62
2022/07/04 11:57:26;;;;;;;3.17;2.98;;;;;;;32.58;29.24;99096.96;1717747;83;21054;-62
2022/07/04 12:00:02;;;;;;;3.37;2.90;;;;;;;32.65;29.85;99093.96;1717849;83;20990;-63
2022/07/04 12:02:32;;;;;;;3.27;2.75;;;;;;;32.74;29.83;99089.84;1717744;83;21076;-64
2022/07/04 12:05:00;;;;;;;3.25;2.60;;;;;;;32.83;29.34;99088.69;1717889;83;20915;-62